sensor_id;sensor_type;location;lat;lon;timestamp;P1;durP1;ratioP1;P2;durP2;ratioP2
8050;SDS011;4068;42.158;24.732;2023-03-01T00:00:14;4.13;;;3.73;;
8050;SDS011;4068;42.158;24.732;2023-03-01T00:02:39;4.27;;;3.87;;
8050;SDS011;4068;42.158;24.732;2023-03-01T00:05:05;3.90;;;3.50;;
8050;SDS011;4068;42.158;24.732;2023-03-01T00:07:32;4.50;;;3.70;;
8050;SDS011;4068;42.158;24.732;2023-03-01T00:09:57;4.47;;;4.07;;
8050;SDS011;4068;42.158;24.732;2023-03-01T00:12:23;4.83;;;4.07;;
8050;SDS011;4068;42.158;24.732;2023-03-01T00:14:48;4.93;;;4.40;;
8050;SDS011;4068;42.158;24.732;2023-03-01T00:17:14;5.63;;;4.27;;
8050;SDS011;4068;42.158;24.732;2023-03-01T00:19:39;4.27;;;3.90;;
8050;SDS011;4068;42.158;24.732;2023-03-01T00:22:05;4.13;;;3.80;;
8050;SDS011;4068;42.158;24.732;2023-03-01T00:24:30;5.90;;;4.47;;
8050;SDS011;4068;42.158;24.732;2023-03-01T00:26:55;5.83;;;4.37;;
8050;SDS011;4068;42.158;24.732;2023-03-01T00:29:22;5.28;;;4.78;;
8050;SDS011;4068;42.158;24.732;2023-03-01T00:31:49;4.57;;;4.17;;
8050;SDS011;4068;42.158;24.732;2023-03-01T00:34:14;5.33;;;4.60;;
8050;SDS011;4068;42.158;24.732;2023-03-01T00:36:40;5.00;;;4.60;;
8050;SDS011;4068;42.158;24.732;2023-03-01T00:39:07;4.63;;;4.10;;
8050;SDS011;4068;42.158;24.732;2023-03-01T00:41:36;4.70;;;4.30;;
8050;SDS011;4068;42.158;24.732;2023-03-01T00:44:01;5.20;;;4.70;;
8050;SDS011;4068;42.158;24.732;2023-03-01T00:46:27;5.20;;;4.60;;
8050;SDS011;4068;42.158;24.732;2023-03-01T00:48:55;5.33;;;4.77;;
8050;SDS011;4068;42.158;24.732;2023-03-01T00:51:21;4.70;;;4.23;;
8050;SDS011;4068;42.158;24.732;2023-03-01T00:53:53;5.90;;;5.03;;
8050;SDS011;4068;42.158;24.732;2023-03-01T00:56:20;5.27;;;4.77;;
8050;SDS011;4068;42.158;24.732;2023-03-01T00:58:45;5.97;;;5.10;;
8050;SDS011;4068;42.158;24.732;2023-03-01T01:01:13;5.87;;;4.93;;
8050;SDS011;4068;42.158;24.732;2023-03-01T01:04:11;4.57;;;4.17;;
8050;SDS011;4068;42.158;24.732;2023-03-01T01:06:40;4.60;;;4.20;;
8050;SDS011;4068;42.158;24.732;2023-03-01T01:09:08;4.83;;;4.33;;
8050;SDS011;4068;42.158;24.732;2023-03-01T01:11:41;4.50;;;4.10;;
8050;SDS011;4068;42.158;24.732;2023-03-01T01:14:08;5.27;;;4.77;;
8050;SDS011;4068;42.158;24.732;2023-03-01T01:16:34;4.80;;;4.30;;
8050;SDS011;4068;42.158;24.732;2023-03-01T01:18:59;7.03;;;4.20;;
8050;SDS011;4068;42.158;24.732;2023-03-01T01:21:25;4.20;;;3.90;;
8050;SDS011;4068;42.158;24.732;2023-03-01T01:23:51;4.70;;;4.30;;
8050;SDS011;4068;42.158;24.732;2023-03-01T01:26:27;4.73;;;4.33;;
8050;SDS011;4068;42.158;24.732;2023-03-01T01:28:54;4.90;;;4.40;;
8050;SDS011;4068;42.158;24.732;2023-03-01T01:31:20;6.43;;;4.17;;
8050;SDS011;4068;42.158;24.732;2023-03-01T01:33:48;4.17;;;3.83;;
8050;SDS011;4068;42.158;24.732;2023-03-01T01:36:15;4.27;;;3.90;;
8050;SDS011;4068;42.158;24.732;2023-03-01T01:38:41;4.10;;;3.70;;
8050;SDS011;4068;42.158;24.732;2023-03-01T01:41:07;4.80;;;4.30;;
8050;SDS011;4068;42.158;24.732;2023-03-01T01:43:37;5.63;;;4.80;;
8050;SDS011;4068;42.158;24.732;2023-03-01T01:48:59;5.20;;;4.27;;
8050;SDS011;4068;42.158;24.732;2023-03-01T01:51:31;5.37;;;4.87;;
8050;SDS011;4068;42.158;24.732;2023-03-01T01:54:04;5.07;;;4.50;;
8050;SDS011;4068;42.158;24.732;2023-03-01T01:56:38;3.97;;;3.60;;
8050;SDS011;4068;42.158;24.732;2023-03-01T01:59:09;4.13;;;3.83;;
8050;SDS011;4068;42.158;24.732;2023-03-01T02:01:36;4.40;;;4.00;;
8050;SDS011;4068;42.158;24.732;2023-03-01T02:04:01;4.20;;;3.80;;
8050;SDS011;4068;42.158;24.732;2023-03-01T02:06:28;4.30;;;3.90;;
8050;SDS011;4068;42.158;24.732;2023-03-01T02:08:59;4.60;;;4.20;;
8050;SDS011;4068;42.158;24.732;2023-03-01T02:11:30;4.47;;;4.07;;
8050;SDS011;4068;42.158;24.732;2023-03-01T02:13:57;5.20;;;4.50;;
8050;SDS011;4068;42.158;24.732;2023-03-01T02:16:22;4.63;;;4.17;;
8050;SDS011;4068;42.158;24.732;2023-03-01T02:18:48;4.93;;;4.43;;
8050;SDS011;4068;42.158;24.732;2023-03-01T02:23:53;5.43;;;4.63;;
8050;SDS011;4068;42.158;24.732;2023-03-01T02:26:23;5.80;;;5.30;;
8050;SDS011;4068;42.158;24.732;2023-03-01T02:28:57;4.90;;;4.40;;
8050;SDS011;4068;42.158;24.732;2023-03-01T02:31:22;4.50;;;4.10;;
8050;SDS011;4068;42.158;24.732;2023-03-01T02:34:07;7.00;;;4.70;;
8050;SDS011;4068;42.158;24.732;2023-03-01T02:36:40;4.97;;;4.17;;
8050;SDS011;4068;42.158;24.732;2023-03-01T02:39:10;5.07;;;4.57;;
8050;SDS011;4068;42.158;24.732;2023-03-01T02:41:42;5.87;;;4.47;;
8050;SDS011;4068;42.158;24.732;2023-03-01T02:44:12;5.20;;;4.50;;
8050;SDS011;4068;42.158;24.732;2023-03-01T02:46:42;5.67;;;4.23;;
8050;SDS011;4068;42.158;24.732;2023-03-01T02:49:17;4.73;;;4.33;;
8050;SDS011;4068;42.158;24.732;2023-03-01T02:52:33;4.60;;;4.20;;
8050;SDS011;4068;42.158;24.732;2023-03-01T02:54:56;7.40;;;4.30;;
8050;SDS011;4068;42.158;24.732;2023-03-01T02:57:33;5.47;;;4.90;;
8050;SDS011;4068;42.158;24.732;2023-03-01T03:00:04;6.03;;;5.13;;
8050;SDS011;4068;42.158;24.732;2023-03-01T03:02:34;5.23;;;4.40;;
8050;SDS011;4068;42.158;24.732;2023-03-01T03:05:09;6.23;;;5.00;;
8050;SDS011;4068;42.158;24.732;2023-03-01T03:07:39;5.70;;;5.10;;
8050;SDS011;4068;42.158;24.732;2023-03-01T03:10:07;5.63;;;4.83;;
8050;SDS011;4068;42.158;24.732;2023-03-01T03:12:36;6.60;;;4.60;;
8050;SDS011;4068;42.158;24.732;2023-03-01T03:15:02;5.80;;;5.20;;
8050;SDS011;4068;42.158;24.732;2023-03-01T03:17:34;5.30;;;4.67;;
8050;SDS011;4068;42.158;24.732;2023-03-01T03:20:01;5.50;;;4.77;;
8050;SDS011;4068;42.158;24.732;2023-03-01T03:22:29;5.03;;;4.53;;
8050;SDS011;4068;42.158;24.732;2023-03-01T03:24:55;5.00;;;4.50;;
8050;SDS011;4068;42.158;24.732;2023-03-01T03:27:20;6.20;;;5.37;;
8050;SDS011;4068;42.158;24.732;2023-03-01T03:29:45;6.23;;;4.60;;
8050;SDS011;4068;42.158;24.732;2023-03-01T03:32:11;4.90;;;4.40;;
8050;SDS011;4068;42.158;24.732;2023-03-01T03:34:36;7.20;;;5.30;;
8050;SDS011;4068;42.158;24.732;2023-03-01T03:37:01;6.73;;;4.73;;
8050;SDS011;4068;42.158;24.732;2023-03-01T03:39:27;7.83;;;5.23;;
8050;SDS011;4068;42.158;24.732;2023-03-01T03:41:53;5.43;;;4.60;;
8050;SDS011;4068;42.158;24.732;2023-03-01T03:44:19;5.83;;;5.23;;
8050;SDS011;4068;42.158;24.732;2023-03-01T03:46:45;6.53;;;5.00;;
8050;SDS011;4068;42.158;24.732;2023-03-01T03:49:11;7.77;;;5.70;;
8050;SDS011;4068;42.158;24.732;2023-03-01T03:51:36;8.57;;;5.70;;
8050;SDS011;4068;42.158;24.732;2023-03-01T03:54:03;6.23;;;5.10;;
8050;SDS011;4068;42.158;24.732;2023-03-01T03:56:28;6.07;;;5.27;;
8050;SDS011;4068;42.158;24.732;2023-03-01T03:58:54;5.50;;;4.73;;
8050;SDS011;4068;42.158;24.732;2023-03-01T04:01:19;6.07;;;5.30;;
8050;SDS011;4068;42.158;24.732;2023-03-01T04:03:45;7.13;;;5.37;;
8050;SDS011;4068;42.158;24.732;2023-03-01T04:06:12;5.70;;;4.67;;
8050;SDS011;4068;42.158;24.732;2023-03-01T04:08:38;6.03;;;5.43;;
8050;SDS011;4068;42.158;24.732;2023-03-01T04:11:04;7.27;;;5.50;;
8050;SDS011;4068;42.158;24.732;2023-03-01T04:13:49;6.23;;;5.17;;
8050;SDS011;4068;42.158;24.732;2023-03-01T04:16:16;6.70;;;5.40;;
8050;SDS011;4068;42.158;24.732;2023-03-01T04:18:42;6.60;;;5.40;;
8050;SDS011;4068;42.158;24.732;2023-03-01T04:21:08;6.60;;;5.33;;
8050;SDS011;4068;42.158;24.732;2023-03-01T04:23:33;6.40;;;5.73;;
8050;SDS011;4068;42.158;24.732;2023-03-01T04:26:00;5.60;;;4.97;;
8050;SDS011;4068;42.158;24.732;2023-03-01T04:28:29;7.27;;;5.60;;
8050;SDS011;4068;42.158;24.732;2023-03-01T04:31:05;6.73;;;5.70;;
8050;SDS011;4068;42.158;24.732;2023-03-01T04:33:38;5.97;;;5.23;;
8050;SDS011;4068;42.158;24.732;2023-03-01T04:36:04;6.97;;;5.20;;
8050;SDS011;4068;42.158;24.732;2023-03-01T04:38:33;6.70;;;5.37;;
8050;SDS011;4068;42.158;24.732;2023-03-01T04:41:00;7.00;;;5.30;;
8050;SDS011;4068;42.158;24.732;2023-03-01T04:43:25;6.57;;;5.30;;
8050;SDS011;4068;42.158;24.732;2023-03-01T04:45:50;8.10;;;6.13;;
8050;SDS011;4068;42.158;24.732;2023-03-01T04:48:16;6.33;;;5.50;;
8050;SDS011;4068;42.158;24.732;2023-03-01T04:50:41;7.33;;;6.17;;
8050;SDS011;4068;42.158;24.732;2023-03-01T04:53:07;8.27;;;5.67;;
8050;SDS011;4068;42.158;24.732;2023-03-01T04:55:33;7.60;;;5.73;;
8050;SDS011;4068;42.158;24.732;2023-03-01T04:57:58;6.60;;;5.83;;
8050;SDS011;4068;42.158;24.732;2023-03-01T05:00:24;7.40;;;5.80;;
8050;SDS011;4068;42.158;24.732;2023-03-01T05:02:50;6.87;;;5.47;;
8050;SDS011;4068;42.158;24.732;2023-03-01T05:05:21;6.80;;;5.90;;
8050;SDS011;4068;42.158;24.732;2023-03-01T05:07:56;7.60;;;6.17;;
8050;SDS011;4068;42.158;24.732;2023-03-01T05:10:23;8.67;;;6.37;;
8050;SDS011;4068;42.158;24.732;2023-03-01T05:12:50;7.13;;;5.87;;
8050;SDS011;4068;42.158;24.732;2023-03-01T05:15:17;7.80;;;5.63;;
8050;SDS011;4068;42.158;24.732;2023-03-01T05:17:43;7.00;;;5.60;;
8050;SDS011;4068;42.158;24.732;2023-03-01T05:20:09;8.03;;;5.77;;
8050;SDS011;4068;42.158;24.732;2023-03-01T05:22:35;10.37;;;6.67;;
8050;SDS011;4068;42.158;24.732;2023-03-01T05:25:01;8.03;;;6.13;;
8050;SDS011;4068;42.158;24.732;2023-03-01T05:27:28;8.63;;;6.60;;
8050;SDS011;4068;42.158;24.732;2023-03-01T05:29:54;11.67;;;7.47;;
8050;SDS011;4068;42.158;24.732;2023-03-01T05:32:20;11.93;;;7.60;;
8050;SDS011;4068;42.158;24.732;2023-03-01T05:34:46;10.07;;;7.33;;
8050;SDS011;4068;42.158;24.732;2023-03-01T05:37:11;12.37;;;7.10;;
8050;SDS011;4068;42.158;24.732;2023-03-01T05:39:39;11.20;;;8.07;;
8050;SDS011;4068;42.158;24.732;2023-03-01T05:42:04;9.60;;;7.13;;
8050;SDS011;4068;42.158;24.732;2023-03-01T05:44:30;10.93;;;8.07;;
8050;SDS011;4068;42.158;24.732;2023-03-01T05:46:55;14.90;;;8.37;;
8050;SDS011;4068;42.158;24.732;2023-03-01T05:49:21;11.10;;;7.70;;
8050;SDS011;4068;42.158;24.732;2023-03-01T05:51:50;12.37;;;7.97;;
8050;SDS011;4068;42.158;24.732;2023-03-01T05:54:16;12.37;;;7.70;;
8050;SDS011;4068;42.158;24.732;2023-03-01T05:56:42;15.83;;;8.23;;
8050;SDS011;4068;42.158;24.732;2023-03-01T05:59:08;8.87;;;7.03;;
8050;SDS011;4068;42.158;24.732;2023-03-01T06:01:34;11.10;;;7.90;;
8050;SDS011;4068;42.158;24.732;2023-03-01T06:04:01;9.00;;;6.77;;
8050;SDS011;4068;42.158;24.732;2023-03-01T06:06:27;10.00;;;7.20;;
8050;SDS011;4068;42.158;24.732;2023-03-01T06:08:53;9.87;;;7.00;;
8050;SDS011;4068;42.158;24.732;2023-03-01T06:11:19;11.27;;;6.93;;
8050;SDS011;4068;42.158;24.732;2023-03-01T06:13:45;10.90;;;7.40;;
8050;SDS011;4068;42.158;24.732;2023-03-01T06:16:11;12.07;;;8.40;;
8050;SDS011;4068;42.158;24.732;2023-03-01T06:18:37;12.53;;;7.93;;
8050;SDS011;4068;42.158;24.732;2023-03-01T06:21:03;12.60;;;8.00;;
8050;SDS011;4068;42.158;24.732;2023-03-01T06:23:30;12.90;;;8.10;;
8050;SDS011;4068;42.158;24.732;2023-03-01T06:25:56;13.80;;;8.33;;
8050;SDS011;4068;42.158;24.732;2023-03-01T06:28:21;17.37;;;8.50;;
8050;SDS011;4068;42.158;24.732;2023-03-01T06:30:48;12.60;;;7.97;;
8050;SDS011;4068;42.158;24.732;2023-03-01T06:33:14;13.27;;;8.63;;
8050;SDS011;4068;42.158;24.732;2023-03-01T06:35:40;10.20;;;7.70;;
8050;SDS011;4068;42.158;24.732;2023-03-01T06:38:05;9.80;;;8.10;;
8050;SDS011;4068;42.158;24.732;2023-03-01T06:40:31;11.17;;;7.63;;
8050;SDS011;4068;42.158;24.732;2023-03-01T06:43:00;9.83;;;6.80;;
8050;SDS011;4068;42.158;24.732;2023-03-01T06:45:25;9.53;;;6.40;;
8050;SDS011;4068;42.158;24.732;2023-03-01T06:47:51;9.03;;;6.70;;
8050;SDS011;4068;42.158;24.732;2023-03-01T06:50:17;10.63;;;6.83;;
8050;SDS011;4068;42.158;24.732;2023-03-01T06:52:43;9.53;;;6.50;;
8050;SDS011;4068;42.158;24.732;2023-03-01T06:55:10;9.80;;;6.00;;
8050;SDS011;4068;42.158;24.732;2023-03-01T06:57:36;7.97;;;5.60;;
8050;SDS011;4068;42.158;24.732;2023-03-01T07:00:03;8.50;;;5.47;;
8050;SDS011;4068;42.158;24.732;2023-03-01T07:02:30;4.87;;;4.37;;
8050;SDS011;4068;42.158;24.732;2023-03-01T07:04:56;5.73;;;4.80;;
8050;SDS011;4068;42.158;24.732;2023-03-01T07:07:21;5.40;;;4.80;;
8050;SDS011;4068;42.158;24.732;2023-03-01T07:09:48;4.70;;;4.10;;
8050;SDS011;4068;42.158;24.732;2023-03-01T07:12:13;6.20;;;4.63;;
8050;SDS011;4068;42.158;24.732;2023-03-01T07:14:39;8.17;;;6.00;;
8050;SDS011;4068;42.158;24.732;2023-03-01T07:17:04;6.57;;;5.57;;
8050;SDS011;4068;42.158;24.732;2023-03-01T07:19:30;5.43;;;4.83;;
8050;SDS011;4068;42.158;24.732;2023-03-01T07:21:55;6.17;;;5.20;;
8050;SDS011;4068;42.158;24.732;2023-03-01T07:24:21;8.00;;;5.43;;
8050;SDS011;4068;42.158;24.732;2023-03-01T07:26:48;5.90;;;5.30;;
8050;SDS011;4068;42.158;24.732;2023-03-01T07:29:15;8.37;;;6.07;;
8050;SDS011;4068;42.158;24.732;2023-03-01T07:31:41;6.50;;;4.87;;
8050;SDS011;4068;42.158;24.732;2023-03-01T07:34:06;6.10;;;5.50;;
8050;SDS011;4068;42.158;24.732;2023-03-01T07:36:32;6.30;;;5.20;;
8050;SDS011;4068;42.158;24.732;2023-03-01T07:38:57;9.15;;;5.07;;
8050;SDS011;4068;42.158;24.732;2023-03-01T07:41:23;6.28;;;4.63;;
8050;SDS011;4068;42.158;24.732;2023-03-01T07:43:48;5.17;;;4.27;;
8050;SDS011;4068;42.158;24.732;2023-03-01T07:46:14;5.28;;;3.70;;
8050;SDS011;4068;42.158;24.732;2023-03-01T07:48:39;6.20;;;4.65;;
8050;SDS011;4068;42.158;24.732;2023-03-01T07:51:05;4.27;;;3.70;;
8050;SDS011;4068;42.158;24.732;2023-03-01T07:53:31;3.83;;;3.53;;
8050;SDS011;4068;42.158;24.732;2023-03-01T07:56:08;5.13;;;4.20;;
8050;SDS011;4068;42.158;24.732;2023-03-01T07:58:36;6.70;;;4.33;;
8050;SDS011;4068;42.158;24.732;2023-03-01T08:01:06;6.07;;;4.30;;
8050;SDS011;4068;42.158;24.732;2023-03-01T08:03:34;5.35;;;4.20;;
8050;SDS011;4068;42.158;24.732;2023-03-01T08:06:01;5.20;;;4.18;;
8050;SDS011;4068;42.158;24.732;2023-03-01T08:08:27;7.47;;;5.63;;
8050;SDS011;4068;42.158;24.732;2023-03-01T08:10:55;7.75;;;5.35;;
8050;SDS011;4068;42.158;24.732;2023-03-01T08:13:22;6.57;;;4.20;;
8050;SDS011;4068;42.158;24.732;2023-03-01T08:15:50;7.72;;;3.88;;
8050;SDS011;4068;42.158;24.732;2023-03-01T08:18:17;4.15;;;3.63;;
8050;SDS011;4068;42.158;24.732;2023-03-01T08:20:43;4.10;;;3.70;;
8050;SDS011;4068;42.158;24.732;2023-03-01T08:23:09;5.43;;;4.38;;
8050;SDS011;4068;42.158;24.732;2023-03-01T08:25:34;4.22;;;3.83;;
8050;SDS011;4068;42.158;24.732;2023-03-01T08:27:59;4.13;;;3.72;;
8050;SDS011;4068;42.158;24.732;2023-03-01T08:30:25;5.13;;;3.80;;
8050;SDS011;4068;42.158;24.732;2023-03-01T08:32:50;4.57;;;3.73;;
8050;SDS011;4068;42.158;24.732;2023-03-01T08:35:16;4.78;;;3.90;;
8050;SDS011;4068;42.158;24.732;2023-03-01T08:37:42;7.82;;;4.72;;
8050;SDS011;4068;42.158;24.732;2023-03-01T08:40:08;4.53;;;3.55;;
8050;SDS011;4068;42.158;24.732;2023-03-01T08:42:35;6.93;;;4.25;;
8050;SDS011;4068;42.158;24.732;2023-03-01T08:45:01;3.67;;;3.37;;
8050;SDS011;4068;42.158;24.732;2023-03-01T08:47:30;4.45;;;3.08;;
8050;SDS011;4068;42.158;24.732;2023-03-01T08:49:55;4.68;;;3.10;;
8050;SDS011;4068;42.158;24.732;2023-03-01T08:52:21;3.53;;;3.22;;
8050;SDS011;4068;42.158;24.732;2023-03-01T08:54:47;14.63;;;2.95;;
8050;SDS011;4068;42.158;24.732;2023-03-01T08:57:13;2.90;;;2.70;;
8050;SDS011;4068;42.158;24.732;2023-03-01T08:59:39;6.25;;;3.45;;
8050;SDS011;4068;42.158;24.732;2023-03-01T09:02:05;3.90;;;3.15;;
8050;SDS011;4068;42.158;24.732;2023-03-01T09:04:37;3.55;;;3.10;;
8050;SDS011;4068;42.158;24.732;2023-03-01T09:07:03;4.07;;;3.10;;
8050;SDS011;4068;42.158;24.732;2023-03-01T09:09:28;4.00;;;2.85;;
8050;SDS011;4068;42.158;24.732;2023-03-01T09:11:53;4.15;;;2.55;;
8050;SDS011;4068;42.158;24.732;2023-03-01T09:14:19;3.42;;;2.95;;
8050;SDS011;4068;42.158;24.732;2023-03-01T09:16:44;2.83;;;2.63;;
8050;SDS011;4068;42.158;24.732;2023-03-01T09:19:10;3.60;;;2.95;;
8050;SDS011;4068;42.158;24.732;2023-03-01T09:21:36;2.90;;;2.70;;
8050;SDS011;4068;42.158;24.732;2023-03-01T09:24:02;5.28;;;3.08;;
8050;SDS011;4068;42.158;24.732;2023-03-01T09:26:28;3.88;;;2.90;;
8050;SDS011;4068;42.158;24.732;2023-03-01T09:28:54;3.00;;;2.80;;
8050;SDS011;4068;42.158;24.732;2023-03-01T09:31:21;6.45;;;3.15;;
8050;SDS011;4068;42.158;24.732;2023-03-01T09:33:48;3.53;;;3.22;;
8050;SDS011;4068;42.158;24.732;2023-03-01T09:36:15;3.65;;;3.35;;
8050;SDS011;4068;42.158;24.732;2023-03-01T09:38:43;3.20;;;2.78;;
8050;SDS011;4068;42.158;24.732;2023-03-01T09:41:10;5.43;;;3.13;;
8050;SDS011;4068;42.158;24.732;2023-03-01T09:43:43;4.78;;;3.38;;
8050;SDS011;4068;42.158;24.732;2023-03-01T09:46:13;3.92;;;3.25;;
8050;SDS011;4068;42.158;24.732;2023-03-01T09:48:52;4.80;;;4.00;;
8050;SDS011;4068;42.158;24.732;2023-03-01T09:51:29;3.38;;;3.08;;
8050;SDS011;4068;42.158;24.732;2023-03-01T09:53:58;5.75;;;3.25;;
8050;SDS011;4068;42.158;24.732;2023-03-01T09:56:34;8.65;;;3.10;;
8050;SDS011;4068;42.158;24.732;2023-03-01T10:02:01;2.83;;;2.63;;
8050;SDS011;4068;42.158;24.732;2023-03-01T10:05:09;3.80;;;3.30;;
8050;SDS011;4068;42.158;24.732;2023-03-01T10:07:43;5.55;;;3.00;;
8050;SDS011;4068;42.158;24.732;2023-03-01T10:10:29;4.10;;;3.80;;
8050;SDS011;4068;42.158;24.732;2023-03-01T10:13:00;6.68;;;3.90;;
8050;SDS011;4068;42.158;24.732;2023-03-01T10:15:47;5.53;;;3.88;;
8050;SDS011;4068;42.158;24.732;2023-03-01T10:18:20;5.35;;;3.72;;
8050;SDS011;4068;42.158;24.732;2023-03-01T10:20:59;4.28;;;3.47;;
8050;SDS011;4068;42.158;24.732;2023-03-01T10:23:37;12.82;;;3.90;;
8050;SDS011;4068;42.158;24.732;2023-03-01T10:26:12;10.50;;;3.55;;
8050;SDS011;4068;42.158;24.732;2023-03-01T10:31:43;4.43;;;3.60;;
8050;SDS011;4068;42.158;24.732;2023-03-01T10:34:14;3.97;;;3.47;;
8050;SDS011;4068;42.158;24.732;2023-03-01T10:36:43;3.85;;;3.22;;
8050;SDS011;4068;42.158;24.732;2023-03-01T10:39:19;4.13;;;3.53;;
8050;SDS011;4068;42.158;24.732;2023-03-01T10:41:57;6.25;;;4.20;;
8050;SDS011;4068;42.158;24.732;2023-03-01T10:44:40;3.30;;;3.00;;
8050;SDS011;4068;42.158;24.732;2023-03-01T10:50:19;7.00;;;3.55;;
8050;SDS011;4068;42.158;24.732;2023-03-01T10:52:55;3.30;;;3.00;;
8050;SDS011;4068;42.158;24.732;2023-03-01T10:58:20;3.45;;;3.03;;
8050;SDS011;4068;42.158;24.732;2023-03-01T11:03:17;3.85;;;3.20;;
8050;SDS011;4068;42.158;24.732;2023-03-01T11:11:18;3.08;;;2.85;;
8050;SDS011;4068;42.158;24.732;2023-03-01T11:13:59;9.50;;;4.10;;
8050;SDS011;4068;42.158;24.732;2023-03-01T11:16:44;6.28;;;3.63;;
8050;SDS011;4068;42.158;24.732;2023-03-01T11:21:36;3.72;;;3.42;;
8050;SDS011;4068;42.158;24.732;2023-03-01T11:24:15;4.10;;;3.70;;
8050;SDS011;4068;42.158;24.732;2023-03-01T11:26:42;5.88;;;3.75;;
8050;SDS011;4068;42.158;24.732;2023-03-01T11:29:17;4.85;;;4.00;;
8050;SDS011;4068;42.158;24.732;2023-03-01T11:31:53;6.82;;;3.97;;
8050;SDS011;4068;42.158;24.732;2023-03-01T11:34:31;4.07;;;3.67;;
8050;SDS011;4068;42.158;24.732;2023-03-01T11:36:59;3.97;;;3.63;;
8050;SDS011;4068;42.158;24.732;2023-03-01T11:39:43;3.13;;;2.92;;
8050;SDS011;4068;42.158;24.732;2023-03-01T11:42:17;3.15;;;2.95;;
8050;SDS011;4068;42.158;24.732;2023-03-01T11:44:50;3.50;;;3.20;;
8050;SDS011;4068;42.158;24.732;2023-03-01T11:50:42;4.13;;;3.40;;
8050;SDS011;4068;42.158;24.732;2023-03-01T11:56:38;3.08;;;2.78;;
8050;SDS011;4068;42.158;24.732;2023-03-01T12:18:50;4.38;;;3.67;;
8050;SDS011;4068;42.158;24.732;2023-03-01T12:30:03;10.32;;;4.03;;
8050;SDS011;4068;42.158;24.732;2023-03-01T12:38:08;14.85;;;5.25;;
8050;SDS011;4068;42.158;24.732;2023-03-01T12:51:39;4.82;;;3.60;;
8050;SDS011;4068;42.158;24.732;2023-03-01T12:54:15;6.78;;;4.50;;
8050;SDS011;4068;42.158;24.732;2023-03-01T12:56:44;8.27;;;4.30;;
8050;SDS011;4068;42.158;24.732;2023-03-01T13:02:08;10.55;;;6.10;;
8050;SDS011;4068;42.158;24.732;2023-03-01T13:10:22;17.60;;;5.22;;
8050;SDS011;4068;42.158;24.732;2023-03-01T13:13:11;8.00;;;4.32;;
8050;SDS011;4068;42.158;24.732;2023-03-01T13:15:39;9.93;;;4.53;;
8050;SDS011;4068;42.158;24.732;2023-03-01T13:33:48;7.95;;;4.60;;
8050;SDS011;4068;42.158;24.732;2023-03-01T13:50:18;7.53;;;4.63;;
8050;SDS011;4068;42.158;24.732;2023-03-01T13:52:40;5.43;;;4.68;;
8050;SDS011;4068;42.158;24.732;2023-03-01T13:55:23;17.13;;;4.65;;
8050;SDS011;4068;42.158;24.732;2023-03-01T13:58:53;9.00;;;4.37;;
8050;SDS011;4068;42.158;24.732;2023-03-01T14:01:25;9.05;;;4.38;;
8050;SDS011;4068;42.158;24.732;2023-03-01T14:03:56;5.05;;;4.45;;
8050;SDS011;4068;42.158;24.732;2023-03-01T14:06:29;6.38;;;5.43;;
8050;SDS011;4068;42.158;24.732;2023-03-01T14:09:04;7.88;;;4.75;;
8050;SDS011;4068;42.158;24.732;2023-03-01T14:20:19;8.38;;;4.78;;
8050;SDS011;4068;42.158;24.732;2023-03-01T14:22:47;6.07;;;5.07;;
8050;SDS011;4068;42.158;24.732;2023-03-01T14:27:40;9.75;;;5.30;;
8050;SDS011;4068;42.158;24.732;2023-03-01T14:30:10;7.63;;;6.20;;
8050;SDS011;4068;42.158;24.732;2023-03-01T14:32:39;6.38;;;5.35;;
8050;SDS011;4068;42.158;24.732;2023-03-01T14:35:19;9.27;;;5.93;;
8050;SDS011;4068;42.158;24.732;2023-03-01T14:37:54;9.18;;;5.55;;
8050;SDS011;4068;42.158;24.732;2023-03-01T14:42:53;9.25;;;5.13;;
8050;SDS011;4068;42.158;24.732;2023-03-01T14:45:20;6.73;;;4.73;;
8050;SDS011;4068;42.158;24.732;2023-03-01T14:47:45;8.87;;;5.80;;
8050;SDS011;4068;42.158;24.732;2023-03-01T14:50:18;7.30;;;4.50;;
8050;SDS011;4068;42.158;24.732;2023-03-01T14:52:45;7.23;;;4.40;;
8050;SDS011;4068;42.158;24.732;2023-03-01T14:55:15;13.40;;;5.80;;
8050;SDS011;4068;42.158;24.732;2023-03-01T14:57:43;6.60;;;5.53;;
8050;SDS011;4068;42.158;24.732;2023-03-01T15:00:13;7.43;;;5.40;;
8050;SDS011;4068;42.158;24.732;2023-03-01T15:02:43;8.23;;;5.27;;
8050;SDS011;4068;42.158;24.732;2023-03-01T15:05:13;7.23;;;5.40;;
8050;SDS011;4068;42.158;24.732;2023-03-01T15:07:40;14.77;;;5.55;;
8050;SDS011;4068;42.158;24.732;2023-03-01T15:10:55;11.83;;;5.80;;
8050;SDS011;4068;42.158;24.732;2023-03-01T15:13:12;10.47;;;6.00;;
8050;SDS011;4068;42.158;24.732;2023-03-01T15:15:42;9.27;;;5.67;;
8050;SDS011;4068;42.158;24.732;2023-03-01T15:20:44;11.50;;;6.27;;
8050;SDS011;4068;42.158;24.732;2023-03-01T15:23:24;9.43;;;6.27;;
8050;SDS011;4068;42.158;24.732;2023-03-01T15:25:50;8.88;;;6.10;;
8050;SDS011;4068;42.158;24.732;2023-03-01T15:28:22;17.97;;;6.23;;
8050;SDS011;4068;42.158;24.732;2023-03-01T15:31:24;18.33;;;6.83;;
8050;SDS011;4068;42.158;24.732;2023-03-01T15:33:42;9.32;;;4.65;;
8050;SDS011;4068;42.158;24.732;2023-03-01T15:36:31;11.93;;;6.07;;
8050;SDS011;4068;42.158;24.732;2023-03-01T15:39:01;5.63;;;4.57;;
8050;SDS011;4068;42.158;24.732;2023-03-01T15:41:31;13.80;;;5.37;;
8050;SDS011;4068;42.158;24.732;2023-03-01T15:44:15;16.17;;;5.47;;
8050;SDS011;4068;42.158;24.732;2023-03-01T15:46:44;16.42;;;6.80;;
8050;SDS011;4068;42.158;24.732;2023-03-01T15:49:22;10.32;;;5.10;;
8050;SDS011;4068;42.158;24.732;2023-03-01T15:51:53;12.13;;;5.03;;
8050;SDS011;4068;42.158;24.732;2023-03-01T15:54:22;6.27;;;4.80;;
8050;SDS011;4068;42.158;24.732;2023-03-01T15:56:49;6.70;;;4.47;;
8050;SDS011;4068;42.158;24.732;2023-03-01T15:59:15;7.17;;;4.80;;
8050;SDS011;4068;42.158;24.732;2023-03-01T16:01:41;7.73;;;5.37;;
8050;SDS011;4068;42.158;24.732;2023-03-01T16:04:09;8.40;;;4.90;;
8050;SDS011;4068;42.158;24.732;2023-03-01T16:06:38;9.00;;;4.77;;
8050;SDS011;4068;42.158;24.732;2023-03-01T16:09:04;6.33;;;4.80;;
8050;SDS011;4068;42.158;24.732;2023-03-01T16:11:30;6.43;;;5.40;;
8050;SDS011;4068;42.158;24.732;2023-03-01T16:13:57;8.13;;;5.33;;
8050;SDS011;4068;42.158;24.732;2023-03-01T16:16:23;14.30;;;5.80;;
8050;SDS011;4068;42.158;24.732;2023-03-01T16:18:48;7.90;;;5.27;;
8050;SDS011;4068;42.158;24.732;2023-03-01T16:21:21;9.17;;;6.07;;
8050;SDS011;4068;42.158;24.732;2023-03-01T16:23:48;11.10;;;7.20;;
8050;SDS011;4068;42.158;24.732;2023-03-01T16:26:15;14.97;;;7.53;;
8050;SDS011;4068;42.158;24.732;2023-03-01T16:28:41;17.87;;;8.10;;
8050;SDS011;4068;42.158;24.732;2023-03-01T16:31:07;8.37;;;6.70;;
8050;SDS011;4068;42.158;24.732;2023-03-01T16:33:34;11.07;;;6.60;;
8050;SDS011;4068;42.158;24.732;2023-03-01T16:36:11;8.43;;;5.37;;
8050;SDS011;4068;42.158;24.732;2023-03-01T16:38:37;7.73;;;5.90;;
8050;SDS011;4068;42.158;24.732;2023-03-01T16:41:04;13.47;;;6.53;;
8050;SDS011;4068;42.158;24.732;2023-03-01T16:43:30;10.67;;;6.47;;
8050;SDS011;4068;42.158;24.732;2023-03-01T16:45:56;11.97;;;6.90;;
8050;SDS011;4068;42.158;24.732;2023-03-01T16:48:23;9.33;;;6.93;;
8050;SDS011;4068;42.158;24.732;2023-03-01T16:50:59;11.27;;;6.37;;
8050;SDS011;4068;42.158;24.732;2023-03-01T16:53:25;16.43;;;7.60;;
8050;SDS011;4068;42.158;24.732;2023-03-01T16:55:57;12.40;;;7.90;;
8050;SDS011;4068;42.158;24.732;2023-03-01T16:58:23;12.17;;;7.93;;
8050;SDS011;4068;42.158;24.732;2023-03-01T17:00:50;11.50;;;8.33;;
8050;SDS011;4068;42.158;24.732;2023-03-01T17:03:18;15.43;;;8.57;;
8050;SDS011;4068;42.158;24.732;2023-03-01T17:05:44;16.67;;;8.77;;
8050;SDS011;4068;42.158;24.732;2023-03-01T17:08:10;14.13;;;8.17;;
8050;SDS011;4068;42.158;24.732;2023-03-01T17:10:35;11.13;;;7.90;;
8050;SDS011;4068;42.158;24.732;2023-03-01T17:13:00;11.73;;;7.57;;
8050;SDS011;4068;42.158;24.732;2023-03-01T17:15:26;14.63;;;7.00;;
8050;SDS011;4068;42.158;24.732;2023-03-01T17:17:51;16.73;;;8.57;;
8050;SDS011;4068;42.158;24.732;2023-03-01T17:20:17;13.20;;;7.10;;
8050;SDS011;4068;42.158;24.732;2023-03-01T17:22:42;10.30;;;6.80;;